createdAt,value
2022-09-01T00:00:30.073Z,5.27
2022-09-01T00:02:58.416Z,5.00
2022-09-01T00:05:27.107Z,5.03
2022-09-01T00:07:55.340Z,5.20
2022-09-01T00:10:25.612Z,4.73
2022-09-01T00:12:53.877Z,5.53
2022-09-01T00:15:22.248Z,5.97
2022-09-01T00:17:51.883Z,5.80
2022-09-01T00:20:20.893Z,5.00
2022-09-01T00:22:49.934Z,5.40
2022-09-01T00:25:20.394Z,5.80
2022-09-01T00:27:49.620Z,4.50
2022-09-01T00:30:17.969Z,5.87
2022-09-01T00:32:46.978Z,5.13
2022-09-01T00:35:17.328Z,5.10
2022-09-01T00:37:45.558Z,4.50
2022-09-01T00:40:16.696Z,4.20
2022-09-01T00:42:46.247Z,4.40
2022-09-01T00:45:14.709Z,5.83
2022-09-01T00:47:42.973Z,5.37
2022-09-01T00:50:12.673Z,5.30
2022-09-01T00:52:44.854Z,5.00
2022-09-01T00:55:14.997Z,5.40
2022-09-01T00:57:43.875Z,5.77
2022-09-01T01:00:20.271Z,6.07
2022-09-01T01:02:50.281Z,5.93
2022-09-01T01:05:18.680Z,5.63
2022-09-01T01:07:48.147Z,6.67
2022-09-01T01:10:18.709Z,5.27
2022-09-01T01:12:52.710Z,6.67
2022-09-01T01:15:21.976Z,6.97
2022-09-01T01:17:50.178Z,5.87
2022-09-01T01:20:35.947Z,5.53
2022-09-01T01:23:10.919Z,6.00
2022-09-01T01:25:43.165Z,6.37
2022-09-01T01:28:15.839Z,5.30
2022-09-01T01:30:51.355Z,6.67
2022-09-01T01:33:20.404Z,5.17
2022-09-01T01:35:50.718Z,6.00
2022-09-01T01:38:23.101Z,5.70
2022-09-01T01:40:53.998Z,5.67
2022-09-01T01:43:23.272Z,5.00
2022-09-01T01:45:53.464Z,5.47
2022-09-01T01:48:24.081Z,5.40
2022-09-01T01:50:52.876Z,6.30
2022-09-01T01:53:21.203Z,5.50
2022-09-01T01:55:49.811Z,6.10
2022-09-01T01:58:20.506Z,5.50
2022-09-01T02:00:50.662Z,7.00
2022-09-01T02:03:26.933Z,5.70
2022-09-01T02:05:56.365Z,5.63
2022-09-01T02:08:26.242Z,5.53
2022-09-01T02:10:55.857Z,5.40
2022-09-01T02:13:31.308Z,4.83
2022-09-01T02:16:02.856Z,5.33
2022-09-01T02:18:36.206Z,4.83
2022-09-01T02:21:06.791Z,4.67
2022-09-01T02:23:35.738Z,4.40
2022-09-01T02:26:16.223Z,5.23
2022-09-01T02:28:55.831Z,6.30
2022-09-01T02:31:24.894Z,5.10
2022-09-01T02:33:54.470Z,6.17
2022-09-01T02:36:25.353Z,4.90
2022-09-01T02:38:56.620Z,5.50
2022-09-01T02:41:29.280Z,5.00
2022-09-01T02:44:02.347Z,6.70
2022-09-01T02:46:30.965Z,4.97
2022-09-01T02:49:00.748Z,5.70
2022-09-01T02:51:29.449Z,6.23
2022-09-01T02:53:57.991Z,5.60
2022-09-01T02:56:27.680Z,5.73
2022-09-01T02:58:56.167Z,5.30
2022-09-01T03:01:29.530Z,5.40
2022-09-01T03:04:00.373Z,5.50
2022-09-01T03:06:28.898Z,5.63
2022-09-01T03:08:59.180Z,6.17
2022-09-01T03:11:29.599Z,5.80
2022-09-01T03:13:58.005Z,4.70
2022-09-01T03:16:27.704Z,5.40
2022-09-01T03:18:55.818Z,5.20
2022-09-01T03:21:24.403Z,6.10
2022-09-01T03:23:53.243Z,5.20
2022-09-01T03:26:22.621Z,6.20
2022-09-01T03:28:52.278Z,6.00
2022-09-01T03:31:21.011Z,4.50
2022-09-01T03:33:51.149Z,5.70
2022-09-01T03:36:20.307Z,5.30
2022-09-01T03:38:49.877Z,4.80
2022-09-01T03:41:19.419Z,4.10
2022-09-01T03:43:48.286Z,5.23
2022-09-01T03:46:20.431Z,5.37
2022-09-01T03:48:51.429Z,5.00
2022-09-01T03:51:21.018Z,5.57
2022-09-01T03:53:49.434Z,5.27
2022-09-01T03:56:17.662Z,5.23
2022-09-01T03:58:47.427Z,6.47
2022-09-01T04:01:16.223Z,5.30
2022-09-01T04:03:49.069Z,6.10
2022-09-01T04:06:19.488Z,6.17
2022-09-01T04:08:48.021Z,6.70
2022-09-01T04:11:18.859Z,6.10
2022-09-01T04:13:47.521Z,5.93
2022-09-01T04:16:34.504Z,6.97
2022-09-01T04:19:08.371Z,6.00
2022-09-01T04:21:39.083Z,8.00
2022-09-01T04:24:09.147Z,6.13
2022-09-01T04:26:38.489Z,8.13
2022-09-01T04:29:06.922Z,6.80
2022-09-01T04:31:35.467Z,6.93
2022-09-01T04:34:03.639Z,7.13
2022-09-01T04:36:34.104Z,7.27
2022-09-01T04:39:09.397Z,8.80
2022-09-01T04:41:43.280Z,6.63
2022-09-01T04:44:11.802Z,7.37
2022-09-01T04:46:46.416Z,6.00
2022-09-01T04:49:19.679Z,6.83
2022-09-01T04:51:53.739Z,6.70
2022-09-01T04:54:24.466Z,7.87
2022-09-01T04:56:54.100Z,6.70
2022-09-01T04:59:24.639Z,6.67
2022-09-01T05:01:54.542Z,6.73
2022-09-01T05:04:28.650Z,7.50
2022-09-01T05:06:59.876Z,7.30
2022-09-01T05:09:30.722Z,5.87
2022-09-01T05:12:01.737Z,7.10
2022-09-01T05:14:30.332Z,6.63
2022-09-01T05:17:00.362Z,6.67
2022-09-01T05:19:30.969Z,7.30
2022-09-01T05:22:00.007Z,8.70
2022-09-01T05:24:30.585Z,6.07
2022-09-01T05:26:59.111Z,7.60
2022-09-01T05:29:27.853Z,7.13
2022-09-01T05:31:56.473Z,5.63
2022-09-01T05:34:27.532Z,6.50
2022-09-01T05:36:58.189Z,7.70
2022-09-01T05:39:45.349Z,5.90
2022-09-01T05:42:13.552Z,6.20
2022-09-01T05:44:45.063Z,4.90
2022-09-01T05:47:20.579Z,6.40
2022-09-01T05:49:49.923Z,4.90
2022-09-01T05:52:22.126Z,4.63
2022-09-01T05:54:52.011Z,6.40
2022-09-01T05:57:35.856Z,6.07
2022-09-01T06:00:11.150Z,6.43
2022-09-01T06:02:41.313Z,4.57
2022-09-01T06:05:11.572Z,5.40
2022-09-01T06:07:42.908Z,5.50
2022-09-01T06:10:15.888Z,5.47
2022-09-01T06:12:45.407Z,5.30
2022-09-01T06:15:18.548Z,4.50
2022-09-01T06:17:47.230Z,4.27
2022-09-01T06:20:18.358Z,4.60
2022-09-01T06:22:47.790Z,4.70
2022-09-01T06:25:18.736Z,4.80
2022-09-01T06:27:48.310Z,4.10
2022-09-01T06:30:24.054Z,3.83
2022-09-01T06:32:52.907Z,4.23
2022-09-01T06:35:21.579Z,4.50
2022-09-01T06:37:49.742Z,4.07
2022-09-01T06:40:19.452Z,4.33
2022-09-01T06:42:49.267Z,3.73
2022-09-01T06:45:18.384Z,4.20
2022-09-01T06:47:47.292Z,3.63
2022-09-01T06:51:14.696Z,3.93
2022-09-01T06:55:59.130Z,3.30
2022-09-01T06:58:27.778Z,4.23
2022-09-01T07:00:55.919Z,3.30
2022-09-01T07:03:25.219Z,3.13
2022-09-01T07:14:27.547Z,2.83
2022-09-01T07:17:23.179Z,3.10
2022-09-01T07:19:48.794Z,2.70
2022-09-01T07:25:11.861Z,2.80
2022-09-01T07:27:50.820Z,2.57
2022-09-01T07:39:49.171Z,2.00
2022-09-01T07:44:31.774Z,2.87
2022-09-01T07:50:12.370Z,2.93
2022-09-01T07:52:43.202Z,2.30
2022-09-01T07:55:12.856Z,1.63
2022-09-01T07:57:42.710Z,2.20
2022-09-01T08:00:14.377Z,2.53
2022-09-01T08:02:44.480Z,2.77
2022-09-01T08:05:17.901Z,1.93
2022-09-01T08:07:54.599Z,2.00
2022-09-01T08:10:23.239Z,1.67
2022-09-01T08:12:58.462Z,1.50
2022-09-01T08:18:16.551Z,3.10
2022-09-01T08:20:47.373Z,3.50
2022-09-01T08:23:18.398Z,2.70
2022-09-01T08:25:47.852Z,2.57
2022-09-01T08:28:26.251Z,2.10
2022-09-01T08:30:56.616Z,2.40
2022-09-01T08:33:26.513Z,2.10
2022-09-01T08:35:58.136Z,1.97
2022-09-01T08:38:26.356Z,2.43
2022-09-01T08:40:57.396Z,2.70
2022-09-01T08:43:34.880Z,2.10
2022-09-01T08:46:10.536Z,2.27
2022-09-01T08:51:34.120Z,1.60
2022-09-01T08:54:06.096Z,1.80
2022-09-01T08:56:36.419Z,1.50
2022-09-01T08:59:05.597Z,1.60
2022-09-01T09:01:45.146Z,1.60
2022-09-01T09:04:25.195Z,1.50
2022-09-01T09:07:00.890Z,1.67
2022-09-01T09:09:37.029Z,1.43
2022-09-01T09:12:19.560Z,1.53
2022-09-01T09:15:02.558Z,1.60
2022-09-01T09:17:35.693Z,1.40
2022-09-01T09:20:06.278Z,1.50
2022-09-01T09:22:34.553Z,1.63
2022-09-01T09:25:08.313Z,1.60
2022-09-01T09:27:38.918Z,1.87
2022-09-01T09:30:11.789Z,1.40
2022-09-01T09:35:37.824Z,1.80
2022-09-01T09:38:28.697Z,1.30
2022-09-01T09:41:20.865Z,1.50
2022-09-01T09:43:58.726Z,1.57
2022-09-01T09:46:29.506Z,1.73
2022-09-01T09:49:14.844Z,1.30
2022-09-01T09:51:45.628Z,1.87
2022-09-01T09:54:15.635Z,2.13
2022-09-01T09:56:45.736Z,1.90
2022-09-01T09:59:39.857Z,1.47
2022-09-01T10:02:19.195Z,1.50
2022-09-01T10:04:55.791Z,1.70
2022-09-01T10:07:32.299Z,2.10
2022-09-01T10:10:03.077Z,1.90
2022-09-01T10:12:34.054Z,2.00
2022-09-01T10:15:12.313Z,1.70
2022-09-01T10:17:44.420Z,1.50
2022-09-01T10:20:18.506Z,1.10
2022-09-01T10:22:48.404Z,1.27
2022-09-01T10:25:21.795Z,1.37
2022-09-01T10:27:54.856Z,1.37
2022-09-01T10:30:23.835Z,1.53
2022-09-01T10:32:56.078Z,1.97
2022-09-01T10:35:29.813Z,1.20
2022-09-01T10:37:59.628Z,1.40
2022-09-01T10:40:50.086Z,1.47
2022-09-01T10:43:28.600Z,1.87
2022-09-01T10:46:03.731Z,1.70
2022-09-01T10:48:48.241Z,1.63
2022-09-01T10:51:51.716Z,1.30
2022-09-01T10:54:57.033Z,1.57
2022-09-01T10:57:42.685Z,1.73
2022-09-01T11:01:10.594Z,1.00
2022-09-01T11:03:56.493Z,1.57
2022-09-01T11:07:13.300Z,1.50
2022-09-01T11:09:43.362Z,1.57
2022-09-01T11:12:53.809Z,1.60
2022-09-01T11:15:37.303Z,1.50
2022-09-01T11:18:11.529Z,1.30
2022-09-01T11:20:41.004Z,1.20
2022-09-01T11:23:14.899Z,1.37
2022-09-01T11:25:45.340Z,1.50
2022-09-01T11:28:39.917Z,1.10
2022-09-01T11:31:20.087Z,1.10
2022-09-01T11:33:53.780Z,1.23
2022-09-01T11:36:29.508Z,2.43
2022-09-01T11:39:05.302Z,2.50
2022-09-01T11:41:44.808Z,2.70
2022-09-01T11:44:15.332Z,3.00
2022-09-01T11:46:43.829Z,2.10
2022-09-01T11:49:28.740Z,1.40
2022-09-01T11:51:57.421Z,2.23
2022-09-01T11:54:26.996Z,1.47
2022-09-01T11:56:55.246Z,1.43
2022-09-01T11:59:34.491Z,1.57
2022-09-01T12:02:04.268Z,1.50
2022-09-01T12:04:36.865Z,1.47
2022-09-01T12:07:10.626Z,1.43
2022-09-01T12:09:43.660Z,1.33
2022-09-01T12:12:29.881Z,1.20
2022-09-01T12:15:05.565Z,1.17
2022-09-01T12:17:34.696Z,1.40
2022-09-01T12:20:25.439Z,1.37
2022-09-01T12:22:56.670Z,1.40
2022-09-01T12:25:27.798Z,1.10
2022-09-01T12:27:56.033Z,1.43
2022-09-01T12:30:24.894Z,1.33
2022-09-01T12:33:22.991Z,1.03
2022-09-01T12:35:41.672Z,1.13
2022-09-01T12:38:30.843Z,1.40
2022-09-01T12:41:00.401Z,2.33
2022-09-01T12:43:30.867Z,1.60
2022-09-01T12:46:02.543Z,2.17
2022-09-01T12:48:33.492Z,2.70
2022-09-01T12:51:03.488Z,3.17
2022-09-01T12:53:36.667Z,2.07
2022-09-01T12:56:19.341Z,1.87
2022-09-01T12:58:54.795Z,2.00
2022-09-01T13:01:29.705Z,1.90
2022-09-01T13:04:25.828Z,2.40
2022-09-01T13:06:55.029Z,2.23
2022-09-01T13:09:24.419Z,2.23
2022-09-01T13:12:10.595Z,3.20
2022-09-01T13:14:40.093Z,1.47
2022-09-01T13:17:13.833Z,1.70
2022-09-01T13:19:43.771Z,1.33
2022-09-01T13:22:12.880Z,1.67
2022-09-01T13:24:44.424Z,2.40
2022-09-01T13:27:22.752Z,2.47
2022-09-01T13:29:51.404Z,1.80
2022-09-01T13:32:21.840Z,1.60
2022-09-01T13:34:52.018Z,1.77
2022-09-01T13:37:21.268Z,1.67
2022-09-01T13:39:49.425Z,2.00
2022-09-01T13:42:19.119Z,1.70
2022-09-01T13:44:52.519Z,1.60
2022-09-01T13:47:31.784Z,1.13
2022-09-01T13:50:10.533Z,1.50
2022-09-01T13:52:39.493Z,2.20
2022-09-01T13:55:09.757Z,2.10
2022-09-01T13:57:39.629Z,1.37
2022-09-01T14:00:11.200Z,1.70
2022-09-01T14:02:40.758Z,1.50
2022-09-01T14:05:10.346Z,2.40
2022-09-01T14:07:39.532Z,2.27
2022-09-01T14:10:09.916Z,1.80
2022-09-01T14:12:41.633Z,2.10
2022-09-01T14:15:15.896Z,1.93
2022-09-01T14:17:45.550Z,2.00
2022-09-01T14:20:15.508Z,1.90
2022-09-01T14:22:43.682Z,1.40
2022-09-01T14:25:12.158Z,1.90
2022-09-01T14:27:44.614Z,1.53
2022-09-01T14:30:15.960Z,1.63
2022-09-01T14:32:44.582Z,1.50
2022-09-01T14:35:12.747Z,1.13
2022-09-01T14:37:41.019Z,1.43
2022-09-01T14:40:16.327Z,1.20
2022-09-01T14:42:49.563Z,1.67
2022-09-01T14:45:19.643Z,1.43
2022-09-01T14:47:48.953Z,1.23
2022-09-01T14:50:21.773Z,1.50
2022-09-01T14:52:53.973Z,1.30
2022-09-01T14:55:23.483Z,1.47
2022-09-01T14:57:54.552Z,1.33
2022-09-01T15:00:25.084Z,1.23
2022-09-01T15:02:54.922Z,1.60
2022-09-01T15:05:25.183Z,1.60
2022-09-01T15:07:55.211Z,2.03
2022-09-01T15:10:26.292Z,1.40
2022-09-01T15:12:57.351Z,1.40
2022-09-01T15:15:25.973Z,2.07
2022-09-01T15:17:54.628Z,2.00
2022-09-01T15:20:40.713Z,1.70
2022-09-01T15:23:09.120Z,1.80
2022-09-01T15:25:39.795Z,2.43
2022-09-01T15:28:09.315Z,2.00
2022-09-01T15:30:38.820Z,1.10
2022-09-01T15:33:20.420Z,1.83
2022-09-01T15:35:48.708Z,2.30
2022-09-01T15:38:17.922Z,3.03
2022-09-01T15:40:53.630Z,3.20
2022-09-01T15:43:45.280Z,2.33
2022-09-01T15:46:14.433Z,1.97
2022-09-01T15:48:44.464Z,1.93
2022-09-01T15:51:32.731Z,2.17
2022-09-01T15:54:02.956Z,2.20
2022-09-01T15:56:32.452Z,2.93
2022-09-01T15:59:03.572Z,3.00
2022-09-01T16:01:33.868Z,4.87
2022-09-01T16:04:02.974Z,3.00
2022-09-01T16:06:34.041Z,2.33
2022-09-01T16:09:02.956Z,2.47
2022-09-01T16:11:31.246Z,2.20
2022-09-01T16:14:01.877Z,3.30
2022-09-01T16:16:40.949Z,2.83
2022-09-01T16:19:21.549Z,2.87
2022-09-01T16:21:54.243Z,2.30
2022-09-01T16:24:22.434Z,1.60
2022-09-01T16:26:50.594Z,1.93
2022-09-01T16:29:22.961Z,1.77
2022-09-01T16:31:56.073Z,2.10
2022-09-01T16:34:27.768Z,2.10
2022-09-01T16:37:04.975Z,2.13
2022-09-01T16:39:36.652Z,1.90
2022-09-01T16:42:13.473Z,1.90
2022-09-01T16:44:50.069Z,2.60
2022-09-01T16:47:29.451Z,2.63
2022-09-01T16:50:08.575Z,2.07
2022-09-01T16:52:42.952Z,2.10
2022-09-01T16:55:21.136Z,2.50
2022-09-01T16:57:59.019Z,2.00
2022-09-01T17:00:37.209Z,2.10
2022-09-01T17:03:16.991Z,2.60
2022-09-01T17:06:03.821Z,6.00
2022-09-01T17:08:34.478Z,4.20
2022-09-01T17:11:09.778Z,3.77
2022-09-01T17:13:40.120Z,5.50
2022-09-01T17:16:12.866Z,2.77
2022-09-01T17:18:44.493Z,2.90
2022-09-01T17:21:17.814Z,2.33
2022-09-01T17:23:52.049Z,3.07
2022-09-01T17:26:23.636Z,2.70
2022-09-01T17:28:56.063Z,3.00
2022-09-01T17:31:35.944Z,4.17
2022-09-01T17:34:14.292Z,5.93
2022-09-01T17:36:49.800Z,6.07
2022-09-01T17:39:28.960Z,5.40
2022-09-01T17:42:01.120Z,5.40
2022-09-01T17:44:35.758Z,5.90
2022-09-01T17:47:12.614Z,6.43
2022-09-01T17:49:48.553Z,6.13
2022-09-01T17:52:22.095Z,6.33
2022-09-01T17:54:55.879Z,4.97
2022-09-01T17:57:31.137Z,4.30
2022-09-01T18:00:06.831Z,4.80
2022-09-01T18:02:59.160Z,3.60
2022-09-01T18:05:29.066Z,2.30
2022-09-01T18:08:17.706Z,3.50
2022-09-01T18:10:50.359Z,4.13
2022-09-01T18:13:42.453Z,4.50
2022-09-01T18:16:13.957Z,4.33
2022-09-01T18:18:47.095Z,3.90
2022-09-01T18:21:18.268Z,2.53
2022-09-01T18:23:47.860Z,3.07
2022-09-01T18:26:20.718Z,2.10
2022-09-01T18:28:52.710Z,2.63
2022-09-01T18:32:19.046Z,2.67
2022-09-01T18:35:01.809Z,2.70
2022-09-01T18:37:34.350Z,2.20
2022-09-01T18:40:16.191Z,2.77
2022-09-01T18:42:51.482Z,1.87
2022-09-01T18:45:28.506Z,2.57
2022-09-01T18:48:04.939Z,2.60
2022-09-01T18:50:42.522Z,2.80
2022-09-01T18:53:22.523Z,2.17
2022-09-01T18:55:53.049Z,2.50
2022-09-01T18:58:32.094Z,2.77
2022-09-01T19:01:05.914Z,3.60
2022-09-01T19:03:35.440Z,2.70
2022-09-01T19:06:24.144Z,3.07
2022-09-01T19:08:58.495Z,2.43
2022-09-01T19:11:36.261Z,2.37
2022-09-01T19:14:09.224Z,3.37
2022-09-01T19:16:46.755Z,3.37
2022-09-01T19:19:22.093Z,1.87
2022-09-01T19:21:55.840Z,2.90
2022-09-01T19:24:28.331Z,2.83
2022-09-01T19:27:00.526Z,3.00
2022-09-01T19:29:32.319Z,3.13
2022-09-01T19:32:03.119Z,3.07
2022-09-01T19:34:36.303Z,3.87
2022-09-01T19:37:06.772Z,3.70
2022-09-01T19:39:37.605Z,2.37
2022-09-01T19:42:11.687Z,3.10
2022-09-01T19:44:44.709Z,2.20
2022-09-01T19:47:22.456Z,2.60
2022-09-01T19:49:55.400Z,2.70
2022-09-01T19:52:32.410Z,3.63
2022-09-01T19:55:04.411Z,3.30
2022-09-01T19:57:36.099Z,3.10
2022-09-01T20:00:10.722Z,3.23
2022-09-01T20:02:43.418Z,3.13
2022-09-01T20:05:25.138Z,5.50
2022-09-01T20:07:56.524Z,4.10
2022-09-01T20:10:42.505Z,5.27
2022-09-01T20:13:48.914Z,3.93
2022-09-01T20:16:26.159Z,3.13
2022-09-01T20:19:00.984Z,3.77
2022-09-01T20:21:29.083Z,3.43
2022-09-01T20:24:06.049Z,2.80
2022-09-01T20:26:37.014Z,4.10
2022-09-01T20:29:10.385Z,3.50
2022-09-01T20:31:41.686Z,3.70
2022-09-01T20:34:14.271Z,3.13
2022-09-01T20:36:45.181Z,2.50
2022-09-01T20:39:37.062Z,2.97
2022-09-01T20:42:09.204Z,2.70
2022-09-01T20:44:43.318Z,2.67
2022-09-01T20:47:12.605Z,1.87
2022-09-01T20:49:40.934Z,2.33
2022-09-01T20:52:13.937Z,2.17
2022-09-01T20:54:50.230Z,2.10
2022-09-01T20:57:36.182Z,1.80
2022-09-01T21:00:08.386Z,2.00
2022-09-01T21:02:46.075Z,2.20
2022-09-01T21:05:28.308Z,2.57
2022-09-01T21:08:14.131Z,2.00
2022-09-01T21:10:59.738Z,2.33
2022-09-01T21:13:49.336Z,2.03
2022-09-01T21:16:24.143Z,2.00
2022-09-01T21:19:08.802Z,1.97
2022-09-01T21:21:42.111Z,1.90
2022-09-01T21:24:10.237Z,2.50
2022-09-01T21:26:40.250Z,3.00
2022-09-01T21:29:21.998Z,2.60
2022-09-01T21:31:50.073Z,3.30
2022-09-01T21:34:18.326Z,2.60
2022-09-01T21:36:46.636Z,3.03
2022-09-01T21:39:17.245Z,3.20
2022-09-01T21:41:47.204Z,2.90
2022-09-01T21:44:15.371Z,2.60
2022-09-01T21:46:43.719Z,3.57
2022-09-01T21:49:14.310Z,2.43
2022-09-01T21:51:43.516Z,2.00
2022-09-01T21:54:11.671Z,2.43
2022-09-01T21:56:39.900Z,2.60
2022-09-01T21:59:11.499Z,3.63
2022-09-01T22:01:39.704Z,3.63
2022-09-01T22:04:08.470Z,3.07
2022-09-01T22:06:36.664Z,3.23
2022-09-01T22:09:07.710Z,2.87
2022-09-01T22:11:49.380Z,2.87
2022-09-01T22:14:19.516Z,2.17
2022-09-01T22:16:48.733Z,1.87
2022-09-01T22:19:17.538Z,4.17
2022-09-01T22:21:48.620Z,3.77
2022-09-01T22:24:19.361Z,3.30
2022-09-01T22:26:48.613Z,3.50
2022-09-01T22:29:18.689Z,4.70
2022-09-01T22:31:48.985Z,3.97
2022-09-01T22:34:17.181Z,3.60
2022-09-01T22:36:47.199Z,4.93
2022-09-01T22:39:16.320Z,4.23
2022-09-01T22:41:44.406Z,4.90
2022-09-01T22:44:16.065Z,6.17
2022-09-01T22:46:45.740Z,4.20
2022-09-01T22:49:13.948Z,3.30
2022-09-01T22:51:43.280Z,3.30
2022-09-01T22:54:12.375Z,3.20
2022-09-01T22:56:42.379Z,3.37
2022-09-01T22:59:13.515Z,3.90
2022-09-01T23:01:46.096Z,4.30
2022-09-01T23:04:32.205Z,6.77
2022-09-01T23:07:00.382Z,6.50
2022-09-01T23:09:28.932Z,2.70
2022-09-01T23:11:57.099Z,2.00
2022-09-01T23:14:25.197Z,2.40
2022-09-01T23:16:53.457Z,1.63
2022-09-01T23:19:23.085Z,1.73
2022-09-01T23:21:52.773Z,1.90
2022-09-01T23:24:21.889Z,1.63
2022-09-01T23:26:50.784Z,1.77
2022-09-01T23:29:21.728Z,3.00
2022-09-01T23:31:49.936Z,4.70
2022-09-01T23:34:18.070Z,4.27
2022-09-01T23:36:48.716Z,3.63
2022-09-01T23:39:18.216Z,2.90
2022-09-01T23:41:46.401Z,4.03
2022-09-01T23:44:17.860Z,3.77
2022-09-01T23:46:47.309Z,5.60
2022-09-01T23:49:17.682Z,3.63
2022-09-01T23:51:46.826Z,4.43
2022-09-01T23:54:17.090Z,4.87
2022-09-01T23:56:46.105Z,6.60
2022-09-01T23:59:14.349Z,5.13
